Terminal Aerodrome Forecast
Issued by NWS

Home | Current Version | Previous Version | Text Only | Print | Product List | Glossary On
Versions: 1 2 3 4 5 6 7 8 9 10 11 12 13 14 15 16 17 18
000
FTUS41 KBGM 020534
TAFITH
TAF
KITH 020534Z 0206/0306 31003KT P6SM SCT090
     FM020800 32003KT P6SM BKN040
     FM021600 32007KT P6SM BKN050
     FM022000 32005KT P6SM SCT060
     FM022300 34003KT P6SM SKC=

USA.gov is the U.S. government's official web portal to all federal, state and local government web resources and services.